sensor_id;sensor_type;location;lat;lon;timestamp;P1;durP1;ratioP1;P2;durP2;ratioP2
2157;SDS011;41972;48.774;9.282;2023-04-01T00:01:28;14.50;;;13.90;;
2157;SDS011;41972;48.774;9.282;2023-04-01T00:03:54;10.63;;;10.03;;
2157;SDS011;41972;48.774;9.282;2023-04-01T00:06:20;13.33;;;12.63;;
2157;SDS011;41972;48.774;9.282;2023-04-01T00:08:46;12.67;;;12.17;;
2157;SDS011;41972;48.774;9.282;2023-04-01T00:11:12;9.57;;;9.03;;
2157;SDS011;41972;48.774;9.282;2023-04-01T00:13:38;12.87;;;12.37;;
2157;SDS011;41972;48.774;9.282;2023-04-01T00:16:06;18.73;;;17.93;;
2157;SDS011;41972;48.774;9.282;2023-04-01T00:18:32;12.77;;;11.87;;
2157;SDS011;41972;48.774;9.282;2023-04-01T00:20:58;12.00;;;11.53;;
2157;SDS011;41972;48.774;9.282;2023-04-01T00:23:24;13.57;;;12.87;;
2157;SDS011;41972;48.774;9.282;2023-04-01T00:25:50;7.70;;;7.10;;
2157;SDS011;41972;48.774;9.282;2023-04-01T00:28:16;29.87;;;28.80;;
2157;SDS011;41972;48.774;9.282;2023-04-01T00:30:42;27.90;;;26.90;;
2157;SDS011;41972;48.774;9.282;2023-04-01T00:33:08;8.80;;;8.20;;
2157;SDS011;41972;48.774;9.282;2023-04-01T00:35:33;16.70;;;15.80;;
2157;SDS011;41972;48.774;9.282;2023-04-01T00:37:59;19.80;;;18.93;;
2157;SDS011;41972;48.774;9.282;2023-04-01T00:40:33;11.80;;;11.10;;
2157;SDS011;41972;48.774;9.282;2023-04-01T00:43:00;26.17;;;25.20;;
2157;SDS011;41972;48.774;9.282;2023-04-01T00:45:32;16.83;;;16.13;;
2157;SDS011;41972;48.774;9.282;2023-04-01T00:48:01;17.73;;;17.13;;
2157;SDS011;41972;48.774;9.282;2023-04-01T00:50:32;19.23;;;18.20;;
2157;SDS011;41972;48.774;9.282;2023-04-01T00:53:00;26.00;;;24.97;;
2157;SDS011;41972;48.774;9.282;2023-04-01T00:55:27;14.17;;;13.67;;
2157;SDS011;41972;48.774;9.282;2023-04-01T00:57:55;21.17;;;20.37;;
2157;SDS011;41972;48.774;9.282;2023-04-01T01:00:23;25.23;;;24.37;;
2157;SDS011;41972;48.774;9.282;2023-04-01T01:02:51;22.50;;;21.60;;
2157;SDS011;41972;48.774;9.282;2023-04-01T01:05:17;29.17;;;28.17;;
2157;SDS011;41972;48.774;9.282;2023-04-01T01:07:52;33.00;;;31.73;;
2157;SDS011;41972;48.774;9.282;2023-04-01T01:13:31;8.73;;;8.23;;
2157;SDS011;41972;48.774;9.282;2023-04-01T01:16:10;22.37;;;21.47;;
2157;SDS011;41972;48.774;9.282;2023-04-01T01:18:50;27.53;;;26.63;;
2157;SDS011;41972;48.774;9.282;2023-04-01T01:21:32;14.93;;;14.33;;
2157;SDS011;41972;48.774;9.282;2023-04-01T01:24:28;23.10;;;22.20;;
2157;SDS011;41972;48.774;9.282;2023-04-01T01:27:20;12.90;;;12.20;;
2157;SDS011;41972;48.774;9.282;2023-04-01T01:32:52;8.80;;;8.40;;
2157;SDS011;41972;48.774;9.282;2023-04-01T01:35:33;10.30;;;9.80;;
2157;SDS011;41972;48.774;9.282;2023-04-01T01:38:04;32.37;;;31.10;;
2157;SDS011;41972;48.774;9.282;2023-04-01T01:40:36;12.27;;;11.40;;
2157;SDS011;41972;48.774;9.282;2023-04-01T01:43:07;13.90;;;13.00;;
2157;SDS011;41972;48.774;9.282;2023-04-01T01:45:37;13.70;;;13.00;;
2157;SDS011;41972;48.774;9.282;2023-04-01T01:48:09;13.47;;;12.77;;
2157;SDS011;41972;48.774;9.282;2023-04-01T01:50:37;11.63;;;10.73;;
2157;SDS011;41972;48.774;9.282;2023-04-01T01:53:07;10.13;;;9.53;;
2157;SDS011;41972;48.774;9.282;2023-04-01T01:55:36;15.07;;;14.57;;
2157;SDS011;41972;48.774;9.282;2023-04-01T01:58:11;20.17;;;19.20;;
2157;SDS011;41972;48.774;9.282;2023-04-01T02:00:46;15.20;;;14.50;;
2157;SDS011;41972;48.774;9.282;2023-04-01T02:03:15;26.60;;;25.40;;
2157;SDS011;41972;48.774;9.282;2023-04-01T02:05:45;18.90;;;18.20;;
2157;SDS011;41972;48.774;9.282;2023-04-01T02:08:18;17.77;;;16.87;;
2157;SDS011;41972;48.774;9.282;2023-04-01T02:11:02;14.00;;;13.43;;
2157;SDS011;41972;48.774;9.282;2023-04-01T02:16:19;8.37;;;7.97;;
2157;SDS011;41972;48.774;9.282;2023-04-01T02:18:50;14.20;;;13.50;;
2157;SDS011;41972;48.774;9.282;2023-04-01T02:21:19;17.13;;;16.43;;
2157;SDS011;41972;48.774;9.282;2023-04-01T02:23:47;12.30;;;11.70;;
2157;SDS011;41972;48.774;9.282;2023-04-01T02:26:13;12.53;;;11.97;;
2157;SDS011;41972;48.774;9.282;2023-04-01T02:28:40;19.47;;;18.67;;
2157;SDS011;41972;48.774;9.282;2023-04-01T02:31:08;13.67;;;13.13;;
2157;SDS011;41972;48.774;9.282;2023-04-01T02:33:35;12.83;;;12.13;;
2157;SDS011;41972;48.774;9.282;2023-04-01T02:36:03;11.63;;;11.00;;
2157;SDS011;41972;48.774;9.282;2023-04-01T02:38:29;14.60;;;14.00;;
2157;SDS011;41972;48.774;9.282;2023-04-01T02:40:56;3.77;;;3.57;;
2157;SDS011;41972;48.774;9.282;2023-04-01T02:43:24;5.07;;;4.77;;
2157;SDS011;41972;48.774;9.282;2023-04-01T02:45:50;5.50;;;5.20;;
2157;SDS011;41972;48.774;9.282;2023-04-01T02:48:15;14.00;;;13.60;;
2157;SDS011;41972;48.774;9.282;2023-04-01T02:50:41;24.33;;;23.63;;
2157;SDS011;41972;48.774;9.282;2023-04-01T02:53:07;15.23;;;14.70;;
2157;SDS011;41972;48.774;9.282;2023-04-01T02:55:33;9.77;;;9.47;;
2157;SDS011;41972;48.774;9.282;2023-04-01T02:57:59;23.27;;;22.47;;
2157;SDS011;41972;48.774;9.282;2023-04-01T03:00:25;5.97;;;5.67;;
2157;SDS011;41972;48.774;9.282;2023-04-01T03:02:51;7.03;;;6.70;;
2157;SDS011;41972;48.774;9.282;2023-04-01T03:05:16;6.53;;;6.30;;
2157;SDS011;41972;48.774;9.282;2023-04-01T03:07:42;5.73;;;5.43;;
2157;SDS011;41972;48.774;9.282;2023-04-01T03:10:08;5.80;;;5.60;;
2157;SDS011;41972;48.774;9.282;2023-04-01T03:12:34;9.20;;;8.90;;
2157;SDS011;41972;48.774;9.282;2023-04-01T03:15:00;15.37;;;14.77;;
2157;SDS011;41972;48.774;9.282;2023-04-01T03:17:26;5.40;;;5.10;;
2157;SDS011;41972;48.774;9.282;2023-04-01T03:19:51;5.77;;;5.47;;
2157;SDS011;41972;48.774;9.282;2023-04-01T03:22:17;5.33;;;5.03;;
2157;SDS011;41972;48.774;9.282;2023-04-01T03:24:45;4.90;;;4.70;;
2157;SDS011;41972;48.774;9.282;2023-04-01T03:27:12;3.93;;;3.73;;
2157;SDS011;41972;48.774;9.282;2023-04-01T03:29:37;2.90;;;2.70;;
2157;SDS011;41972;48.774;9.282;2023-04-01T03:32:03;5.33;;;5.13;;
2157;SDS011;41972;48.774;9.282;2023-04-01T03:34:29;5.70;;;5.40;;
2157;SDS011;41972;48.774;9.282;2023-04-01T03:36:55;8.63;;;8.33;;
2157;SDS011;41972;48.774;9.282;2023-04-01T03:39:21;32.33;;;31.37;;
2157;SDS011;41972;48.774;9.282;2023-04-01T03:41:46;19.13;;;18.33;;
2157;SDS011;41972;48.774;9.282;2023-04-01T03:44:12;17.57;;;16.97;;
2157;SDS011;41972;48.774;9.282;2023-04-01T03:46:38;9.83;;;9.37;;
2157;SDS011;41972;48.774;9.282;2023-04-01T03:49:10;2.33;;;2.23;;
2157;SDS011;41972;48.774;9.282;2023-04-01T03:51:37;21.47;;;20.67;;
2157;SDS011;41972;48.774;9.282;2023-04-01T03:54:04;8.60;;;8.20;;
2157;SDS011;41972;48.774;9.282;2023-04-01T03:56:30;7.60;;;7.20;;
2157;SDS011;41972;48.774;9.282;2023-04-01T03:58:55;9.30;;;9.00;;
2157;SDS011;41972;48.774;9.282;2023-04-01T04:01:23;10.30;;;9.97;;
2157;SDS011;41972;48.774;9.282;2023-04-01T04:03:49;6.60;;;6.30;;
2157;SDS011;41972;48.774;9.282;2023-04-01T04:06:15;6.17;;;5.97;;
2157;SDS011;41972;48.774;9.282;2023-04-01T04:08:43;6.43;;;6.13;;
2157;SDS011;41972;48.774;9.282;2023-04-01T04:11:09;9.70;;;9.30;;
2157;SDS011;41972;48.774;9.282;2023-04-01T04:13:35;8.67;;;8.37;;
2157;SDS011;41972;48.774;9.282;2023-04-01T04:16:01;11.17;;;10.77;;
2157;SDS011;41972;48.774;9.282;2023-04-01T04:18:27;15.40;;;14.70;;
2157;SDS011;41972;48.774;9.282;2023-04-01T04:20:53;5.13;;;4.93;;
2157;SDS011;41972;48.774;9.282;2023-04-01T04:23:18;6.50;;;6.23;;
2157;SDS011;41972;48.774;9.282;2023-04-01T04:26:00;6.03;;;5.63;;
2157;SDS011;41972;48.774;9.282;2023-04-01T04:28:28;9.13;;;8.83;;
2157;SDS011;41972;48.774;9.282;2023-04-01T04:30:54;11.13;;;10.63;;
2157;SDS011;41972;48.774;9.282;2023-04-01T04:33:20;83.80;;;81.13;;
2157;SDS011;41972;48.774;9.282;2023-04-01T04:35:46;41.90;;;40.47;;
2157;SDS011;41972;48.774;9.282;2023-04-01T04:38:12;12.10;;;11.70;;
2157;SDS011;41972;48.774;9.282;2023-04-01T04:40:38;8.93;;;8.63;;
2157;SDS011;41972;48.774;9.282;2023-04-01T04:43:04;5.97;;;5.77;;
2157;SDS011;41972;48.774;9.282;2023-04-01T04:45:30;2.43;;;2.33;;
2157;SDS011;41972;48.774;9.282;2023-04-01T04:47:56;7.13;;;6.83;;
2157;SDS011;41972;48.774;9.282;2023-04-01T04:50:22;10.47;;;10.00;;
2157;SDS011;41972;48.774;9.282;2023-04-01T04:52:48;17.40;;;16.87;;
2157;SDS011;41972;48.774;9.282;2023-04-01T04:55:14;17.47;;;16.87;;
2157;SDS011;41972;48.774;9.282;2023-04-01T04:57:40;19.23;;;18.53;;
2157;SDS011;41972;48.774;9.282;2023-04-01T05:00:06;16.30;;;15.77;;
2157;SDS011;41972;48.774;9.282;2023-04-01T05:02:32;13.73;;;13.23;;
2157;SDS011;41972;48.774;9.282;2023-04-01T05:04:58;31.17;;;30.17;;
2157;SDS011;41972;48.774;9.282;2023-04-01T05:07:23;11.37;;;10.97;;
2157;SDS011;41972;48.774;9.282;2023-04-01T05:09:49;10.87;;;10.37;;
2157;SDS011;41972;48.774;9.282;2023-04-01T05:12:14;24.03;;;23.13;;
2157;SDS011;41972;48.774;9.282;2023-04-01T05:14:40;8.37;;;7.80;;
2157;SDS011;41972;48.774;9.282;2023-04-01T05:17:09;7.63;;;7.33;;
2157;SDS011;41972;48.774;9.282;2023-04-01T05:19:35;14.50;;;14.00;;
2157;SDS011;41972;48.774;9.282;2023-04-01T05:22:01;14.73;;;14.03;;
2157;SDS011;41972;48.774;9.282;2023-04-01T05:24:26;9.27;;;8.77;;
2157;SDS011;41972;48.774;9.282;2023-04-01T05:26:52;10.90;;;10.50;;
2157;SDS011;41972;48.774;9.282;2023-04-01T05:29:17;7.70;;;7.30;;
2157;SDS011;41972;48.774;9.282;2023-04-01T05:31:43;11.30;;;10.90;;
2157;SDS011;41972;48.774;9.282;2023-04-01T05:34:09;15.50;;;14.90;;
2157;SDS011;41972;48.774;9.282;2023-04-01T05:36:35;10.27;;;9.67;;
2157;SDS011;41972;48.774;9.282;2023-04-01T05:39:01;6.80;;;6.40;;
2157;SDS011;41972;48.774;9.282;2023-04-01T05:41:27;6.40;;;5.93;;
2157;SDS011;41972;48.774;9.282;2023-04-01T05:43:52;4.30;;;4.00;;
2157;SDS011;41972;48.774;9.282;2023-04-01T05:46:18;4.97;;;4.67;;
2157;SDS011;41972;48.774;9.282;2023-04-01T05:48:43;4.27;;;3.87;;
2157;SDS011;41972;48.774;9.282;2023-04-01T05:51:12;5.43;;;5.13;;
2157;SDS011;41972;48.774;9.282;2023-04-01T05:53:39;6.33;;;5.87;;
2157;SDS011;41972;48.774;9.282;2023-04-01T05:56:05;16.47;;;15.87;;
2157;SDS011;41972;48.774;9.282;2023-04-01T05:58:34;12.27;;;11.63;;
2157;SDS011;41972;48.774;9.282;2023-04-01T06:01:01;17.87;;;17.23;;
2157;SDS011;41972;48.774;9.282;2023-04-01T06:03:32;8.60;;;8.10;;
2157;SDS011;41972;48.774;9.282;2023-04-01T06:05:58;11.97;;;11.47;;
2157;SDS011;41972;48.774;9.282;2023-04-01T06:08:24;18.00;;;17.33;;
2157;SDS011;41972;48.774;9.282;2023-04-01T06:10:53;7.23;;;6.83;;
2157;SDS011;41972;48.774;9.282;2023-04-01T06:18:47;20.90;;;19.97;;
2157;SDS011;41972;48.774;9.282;2023-04-01T06:26:37;10.63;;;10.13;;
2157;SDS011;41972;48.774;9.282;2023-04-01T06:34:42;7.10;;;6.83;;
2157;SDS011;41972;48.774;9.282;2023-04-01T06:37:34;10.00;;;9.40;;
2157;SDS011;41972;48.774;9.282;2023-04-01T06:45:51;7.13;;;6.83;;
2157;SDS011;41972;48.774;9.282;2023-04-01T06:48:33;10.27;;;9.77;;
2157;SDS011;41972;48.774;9.282;2023-04-01T06:54:01;6.87;;;6.57;;
2157;SDS011;41972;48.774;9.282;2023-04-01T06:56:31;4.70;;;4.30;;
2157;SDS011;41972;48.774;9.282;2023-04-01T07:04:05;5.00;;;4.70;;
2157;SDS011;41972;48.774;9.282;2023-04-01T07:06:52;5.23;;;4.93;;
2157;SDS011;41972;48.774;9.282;2023-04-01T07:09:25;4.17;;;3.87;;
2157;SDS011;41972;48.774;9.282;2023-04-01T07:12:09;8.80;;;8.40;;
2157;SDS011;41972;48.774;9.282;2023-04-01T07:14:41;20.73;;;20.03;;
2157;SDS011;41972;48.774;9.282;2023-04-01T07:19:53;9.67;;;9.30;;
2157;SDS011;41972;48.774;9.282;2023-04-01T07:22:26;7.07;;;6.57;;
2157;SDS011;41972;48.774;9.282;2023-04-01T07:24:55;23.87;;;23.00;;
2157;SDS011;41972;48.774;9.282;2023-04-01T07:27:23;11.13;;;10.73;;
2157;SDS011;41972;48.774;9.282;2023-04-01T07:29:48;24.53;;;23.63;;
2157;SDS011;41972;48.774;9.282;2023-04-01T07:34:55;10.13;;;9.73;;
2157;SDS011;41972;48.774;9.282;2023-04-01T07:37:58;24.07;;;23.27;;
2157;SDS011;41972;48.774;9.282;2023-04-01T07:40:50;11.83;;;11.43;;
2157;SDS011;41972;48.774;9.282;2023-04-01T07:49:07;11.03;;;10.63;;
2157;SDS011;41972;48.774;9.282;2023-04-01T07:54:36;5.10;;;4.90;;
2157;SDS011;41972;48.774;9.282;2023-04-01T07:57:17;5.70;;;5.30;;
2157;SDS011;41972;48.774;9.282;2023-04-01T08:15:56;5.30;;;5.00;;
2157;SDS011;41972;48.774;9.282;2023-04-01T08:18:47;6.03;;;5.73;;
2157;SDS011;41972;48.774;9.282;2023-04-01T08:21:24;5.23;;;5.00;;
2157;SDS011;41972;48.774;9.282;2023-04-01T08:23:54;5.67;;;5.17;;
2157;SDS011;41972;48.774;9.282;2023-04-01T08:26:41;5.10;;;4.80;;
2157;SDS011;41972;48.774;9.282;2023-04-01T08:29:11;3.83;;;3.63;;
2157;SDS011;41972;48.774;9.282;2023-04-01T08:31:40;3.97;;;3.63;;
2157;SDS011;41972;48.774;9.282;2023-04-01T08:34:10;5.37;;;5.07;;
2157;SDS011;41972;48.774;9.282;2023-04-01T08:36:43;7.43;;;7.13;;
2157;SDS011;41972;48.774;9.282;2023-04-01T08:39:23;3.37;;;2.83;;
2157;SDS011;41972;48.774;9.282;2023-04-01T08:44:39;5.03;;;4.73;;
2157;SDS011;41972;48.774;9.282;2023-04-01T08:52:45;7.17;;;6.77;;
2157;SDS011;41972;48.774;9.282;2023-04-01T08:55:38;7.63;;;7.23;;
2157;SDS011;41972;48.774;9.282;2023-04-01T08:58:42;5.03;;;4.70;;
2157;SDS011;41972;48.774;9.282;2023-04-01T09:03:55;2.93;;;2.73;;
2157;SDS011;41972;48.774;9.282;2023-04-01T09:06:50;5.90;;;5.60;;
2157;SDS011;41972;48.774;9.282;2023-04-01T09:22:50;3.33;;;3.13;;
2157;SDS011;41972;48.774;9.282;2023-04-01T09:28:13;7.87;;;7.57;;
2157;SDS011;41972;48.774;9.282;2023-04-01T09:44:15;6.90;;;6.60;;
2157;SDS011;41972;48.774;9.282;2023-04-01T09:49:52;5.47;;;5.17;;
2157;SDS011;41972;48.774;9.282;2023-04-01T10:00:39;3.53;;;3.33;;
2157;SDS011;41972;48.774;9.282;2023-04-01T10:22:58;3.63;;;3.43;;
2157;SDS011;41972;48.774;9.282;2023-04-01T10:40:13;4.23;;;4.03;;
2157;SDS011;41972;48.774;9.282;2023-04-01T10:43:06;2.30;;;2.20;;
2157;SDS011;41972;48.774;9.282;2023-04-01T10:51:31;3.20;;;3.10;;
2157;SDS011;41972;48.774;9.282;2023-04-01T10:54:17;6.37;;;6.10;;
2157;SDS011;41972;48.774;9.282;2023-04-01T11:05:58;3.80;;;3.60;;
2157;SDS011;41972;48.774;9.282;2023-04-01T11:39:08;4.47;;;4.37;;
2157;SDS011;41972;48.774;9.282;2023-04-01T11:41:46;8.90;;;8.60;;
2157;SDS011;41972;48.774;9.282;2023-04-01T11:44:24;2.93;;;2.83;;
2157;SDS011;41972;48.774;9.282;2023-04-01T11:49:47;3.93;;;3.80;;
2157;SDS011;41972;48.774;9.282;2023-04-01T11:55:15;3.13;;;3.03;;
2157;SDS011;41972;48.774;9.282;2023-04-01T12:06:12;4.47;;;4.27;;
2157;SDS011;41972;48.774;9.282;2023-04-01T12:08:53;7.23;;;7.03;;
2157;SDS011;41972;48.774;9.282;2023-04-01T12:11:33;8.37;;;8.10;;
2157;SDS011;41972;48.774;9.282;2023-04-01T12:14:06;8.67;;;8.40;;
2157;SDS011;41972;48.774;9.282;2023-04-01T12:19:51;7.63;;;7.33;;
2157;SDS011;41972;48.774;9.282;2023-04-01T12:22:26;3.47;;;3.30;;
2157;SDS011;41972;48.774;9.282;2023-04-01T12:33:56;10.87;;;10.43;;
2157;SDS011;41972;48.774;9.282;2023-04-01T12:36:49;9.77;;;9.37;;
2157;SDS011;41972;48.774;9.282;2023-04-01T12:42:07;7.30;;;7.10;;
2157;SDS011;41972;48.774;9.282;2023-04-01T12:50:39;8.80;;;8.50;;
2157;SDS011;41972;48.774;9.282;2023-04-01T12:59:22;11.87;;;11.47;;
2157;SDS011;41972;48.774;9.282;2023-04-01T13:02:07;3.47;;;3.37;;
2157;SDS011;41972;48.774;9.282;2023-04-01T13:05:06;6.43;;;6.23;;
2157;SDS011;41972;48.774;9.282;2023-04-01T13:16:03;9.73;;;9.43;;
2157;SDS011;41972;48.774;9.282;2023-04-01T13:18:40;3.57;;;3.47;;
2157;SDS011;41972;48.774;9.282;2023-04-01T13:21:33;7.20;;;7.00;;
2157;SDS011;41972;48.774;9.282;2023-04-01T13:30:18;7.23;;;7.03;;
2157;SDS011;41972;48.774;9.282;2023-04-01T13:32:50;8.63;;;8.33;;
2157;SDS011;41972;48.774;9.282;2023-04-01T13:43:33;6.47;;;6.27;;
2157;SDS011;41972;48.774;9.282;2023-04-01T13:54:17;3.97;;;3.87;;
2157;SDS011;41972;48.774;9.282;2023-04-01T13:57:08;8.00;;;7.70;;
2157;SDS011;41972;48.774;9.282;2023-04-01T13:59:59;5.57;;;5.37;;
2157;SDS011;41972;48.774;9.282;2023-04-01T14:05:32;6.63;;;6.43;;
2157;SDS011;41972;48.774;9.282;2023-04-01T14:08:14;13.63;;;13.23;;
2157;SDS011;41972;48.774;9.282;2023-04-01T14:13:18;6.73;;;6.53;;
2157;SDS011;41972;48.774;9.282;2023-04-01T14:22:00;7.67;;;7.47;;
2157;SDS011;41972;48.774;9.282;2023-04-01T14:27:24;7.73;;;7.53;;
2157;SDS011;41972;48.774;9.282;2023-04-01T14:32:39;7.63;;;7.43;;
2157;SDS011;41972;48.774;9.282;2023-04-01T14:44:04;10.10;;;9.80;;
2157;SDS011;41972;48.774;9.282;2023-04-01T14:49:35;7.20;;;6.90;;
2157;SDS011;41972;48.774;9.282;2023-04-01T14:55:01;9.10;;;8.80;;
2157;SDS011;41972;48.774;9.282;2023-04-01T14:57:44;3.90;;;3.80;;
2157;SDS011;41972;48.774;9.282;2023-04-01T15:03:30;14.93;;;14.50;;
2157;SDS011;41972;48.774;9.282;2023-04-01T15:06:12;28.00;;;27.13;;
2157;SDS011;41972;48.774;9.282;2023-04-01T15:09:10;20.93;;;20.33;;
2157;SDS011;41972;48.774;9.282;2023-04-01T15:14:35;13.63;;;13.23;;
2157;SDS011;41972;48.774;9.282;2023-04-01T15:22:26;22.20;;;21.50;;
2157;SDS011;41972;48.774;9.282;2023-04-01T15:33:45;11.13;;;10.80;;
2157;SDS011;41972;48.774;9.282;2023-04-01T15:36:26;19.53;;;18.97;;
2157;SDS011;41972;48.774;9.282;2023-04-01T15:44:50;11.60;;;11.20;;
2157;SDS011;41972;48.774;9.282;2023-04-01T15:48:01;13.20;;;12.80;;
2157;SDS011;41972;48.774;9.282;2023-04-01T16:13:51;7.80;;;7.50;;
2157;SDS011;41972;48.774;9.282;2023-04-01T16:22:31;4.73;;;4.50;;
2157;SDS011;41972;48.774;9.282;2023-04-01T16:31:06;6.00;;;5.70;;
2157;SDS011;41972;48.774;9.282;2023-04-01T16:33:44;9.83;;;9.47;;
2157;SDS011;41972;48.774;9.282;2023-04-01T16:39:18;7.33;;;7.03;;
2157;SDS011;41972;48.774;9.282;2023-04-01T16:42:02;6.40;;;6.20;;
2157;SDS011;41972;48.774;9.282;2023-04-01T16:45:00;7.77;;;7.53;;
2157;SDS011;41972;48.774;9.282;2023-04-01T16:47:35;8.83;;;8.53;;
2157;SDS011;41972;48.774;9.282;2023-04-01T16:50:18;5.90;;;5.70;;
2157;SDS011;41972;48.774;9.282;2023-04-01T16:52:58;8.47;;;8.17;;
2157;SDS011;41972;48.774;9.282;2023-04-01T16:55:48;2.97;;;2.87;;
2157;SDS011;41972;48.774;9.282;2023-04-01T16:58:34;7.37;;;6.97;;
2157;SDS011;41972;48.774;9.282;2023-04-01T17:01:07;6.70;;;6.50;;
2157;SDS011;41972;48.774;9.282;2023-04-01T17:03:40;4.03;;;3.83;;
2157;SDS011;41972;48.774;9.282;2023-04-01T17:07:15;6.07;;;5.77;;
2157;SDS011;41972;48.774;9.282;2023-04-01T17:14:52;9.13;;;8.63;;
2157;SDS011;41972;48.774;9.282;2023-04-01T17:25:25;7.77;;;7.47;;
2157;SDS011;41972;48.774;9.282;2023-04-01T17:28:12;5.07;;;4.87;;
2157;SDS011;41972;48.774;9.282;2023-04-01T17:30:58;6.70;;;6.50;;
2157;SDS011;41972;48.774;9.282;2023-04-01T17:36:56;5.03;;;4.63;;
2157;SDS011;41972;48.774;9.282;2023-04-01T17:42:14;8.27;;;7.90;;
2157;SDS011;41972;48.774;9.282;2023-04-01T17:48:03;10.27;;;9.87;;
2157;SDS011;41972;48.774;9.282;2023-04-01T17:50:47;5.03;;;4.83;;
2157;SDS011;41972;48.774;9.282;2023-04-01T17:58:51;9.23;;;8.83;;
2157;SDS011;41972;48.774;9.282;2023-04-01T18:04:37;9.30;;;8.90;;
2157;SDS011;41972;48.774;9.282;2023-04-01T18:07:34;8.23;;;7.83;;
2157;SDS011;41972;48.774;9.282;2023-04-01T18:10:26;6.53;;;6.23;;
2157;SDS011;41972;48.774;9.282;2023-04-01T18:18:34;3.70;;;3.50;;
2157;SDS011;41972;48.774;9.282;2023-04-01T18:21:14;7.90;;;7.50;;
2157;SDS011;41972;48.774;9.282;2023-04-01T18:23:53;3.30;;;3.10;;
2157;SDS011;41972;48.774;9.282;2023-04-01T18:26:28;4.67;;;4.47;;
2157;SDS011;41972;48.774;9.282;2023-04-01T18:31:26;15.73;;;15.03;;
2157;SDS011;41972;48.774;9.282;2023-04-01T18:34:07;5.40;;;5.10;;
2157;SDS011;41972;48.774;9.282;2023-04-01T18:39:17;3.93;;;3.73;;
2157;SDS011;41972;48.774;9.282;2023-04-01T18:47:22;3.07;;;2.80;;
2157;SDS011;41972;48.774;9.282;2023-04-01T18:53:24;13.33;;;12.83;;
2157;SDS011;41972;48.774;9.282;2023-04-01T18:58:58;4.17;;;3.97;;
2157;SDS011;41972;48.774;9.282;2023-04-01T19:01:49;10.53;;;10.13;;
2157;SDS011;41972;48.774;9.282;2023-04-01T19:04:26;11.50;;;11.10;;
2157;SDS011;41972;48.774;9.282;2023-04-01T19:09:49;16.20;;;15.60;;
2157;SDS011;41972;48.774;9.282;2023-04-01T19:15:19;17.33;;;16.63;;
2157;SDS011;41972;48.774;9.282;2023-04-01T19:17:49;13.40;;;12.90;;
2157;SDS011;41972;48.774;9.282;2023-04-01T19:25:49;12.27;;;11.73;;
2157;SDS011;41972;48.774;9.282;2023-04-01T19:28:30;17.33;;;16.57;;
2157;SDS011;41972;48.774;9.282;2023-04-01T19:31:39;18.93;;;18.03;;
2157;SDS011;41972;48.774;9.282;2023-04-01T19:45:54;13.30;;;12.80;;
2157;SDS011;41972;48.774;9.282;2023-04-01T19:48:51;14.13;;;13.50;;
2157;SDS011;41972;48.774;9.282;2023-04-01T20:02:34;3.60;;;3.30;;
2157;SDS011;41972;48.774;9.282;2023-04-01T20:08:08;8.57;;;8.13;;
2157;SDS011;41972;48.774;9.282;2023-04-01T20:13:27;11.93;;;11.53;;
2157;SDS011;41972;48.774;9.282;2023-04-01T20:16:12;18.67;;;17.97;;
2157;SDS011;41972;48.774;9.282;2023-04-01T20:18:56;14.60;;;13.97;;
2157;SDS011;41972;48.774;9.282;2023-04-01T20:21:28;15.07;;;14.57;;
2157;SDS011;41972;48.774;9.282;2023-04-01T20:26:50;7.73;;;7.43;;
2157;SDS011;41972;48.774;9.282;2023-04-01T20:29:35;26.00;;;24.97;;
2157;SDS011;41972;48.774;9.282;2023-04-01T20:32:11;4.50;;;4.20;;
2157;SDS011;41972;48.774;9.282;2023-04-01T20:34:50;6.33;;;6.13;;
2157;SDS011;41972;48.774;9.282;2023-04-01T20:37:25;13.97;;;13.43;;
2157;SDS011;41972;48.774;9.282;2023-04-01T20:46:07;21.30;;;20.57;;
2157;SDS011;41972;48.774;9.282;2023-04-01T20:51:25;40.90;;;39.63;;
2157;SDS011;41972;48.774;9.282;2023-04-01T20:57:05;60.63;;;58.83;;
2157;SDS011;41972;48.774;9.282;2023-04-01T21:07:52;36.70;;;35.50;;
2157;SDS011;41972;48.774;9.282;2023-04-01T21:13:03;80.90;;;78.50;;
2157;SDS011;41972;48.774;9.282;2023-04-01T21:15:51;47.20;;;45.70;;
2157;SDS011;41972;48.774;9.282;2023-04-01T21:35:17;81.57;;;79.20;;
2157;SDS011;41972;48.774;9.282;2023-04-01T22:00:42;39.80;;;38.53;;
2157;SDS011;41972;48.774;9.282;2023-04-01T22:03:36;66.23;;;64.03;;
2157;SDS011;41972;48.774;9.282;2023-04-01T22:16:48;35.17;;;34.07;;
2157;SDS011;41972;48.774;9.282;2023-04-01T22:19:19;33.27;;;32.20;;
2157;SDS011;41972;48.774;9.282;2023-04-01T22:21:55;3.60;;;3.40;;
2157;SDS011;41972;48.774;9.282;2023-04-01T22:30:06;121.40;;;117.80;;
2157;SDS011;41972;48.774;9.282;2023-04-01T22:32:45;72.40;;;70.10;;
2157;SDS011;41972;48.774;9.282;2023-04-01T22:35:33;71.17;;;68.97;;
2157;SDS011;41972;48.774;9.282;2023-04-01T22:41:01;82.77;;;80.27;;
2157;SDS011;41972;48.774;9.282;2023-04-01T22:43:49;75.93;;;73.53;;
2157;SDS011;41972;48.774;9.282;2023-04-01T22:48:52;96.97;;;94.07;;
2157;SDS011;41972;48.774;9.282;2023-04-01T22:54:22;97.80;;;94.90;;
2157;SDS011;41972;48.774;9.282;2023-04-01T22:57:03;11.60;;;11.13;;
2157;SDS011;41972;48.774;9.282;2023-04-01T22:59:37;57.30;;;55.50;;
2157;SDS011;41972;48.774;9.282;2023-04-01T23:02:06;43.83;;;42.50;;
2157;SDS011;41972;48.774;9.282;2023-04-01T23:04:40;14.80;;;14.30;;
2157;SDS011;41972;48.774;9.282;2023-04-01T23:07:19;32.73;;;31.70;;
2157;SDS011;41972;48.774;9.282;2023-04-01T23:10:14;20.10;;;19.43;;
2157;SDS011;41972;48.774;9.282;2023-04-01T23:13:02;10.47;;;10.07;;
2157;SDS011;41972;48.774;9.282;2023-04-01T23:15:29;2.03;;;1.93;;
2157;SDS011;41972;48.774;9.282;2023-04-01T23:24:05;5.40;;;5.20;;
2157;SDS011;41972;48.774;9.282;2023-04-01T23:26:50;10.13;;;9.70;;
2157;SDS011;41972;48.774;9.282;2023-04-01T23:29:21;10.53;;;9.93;;
2157;SDS011;41972;48.774;9.282;2023-04-01T23:31:48;5.40;;;5.20;;
2157;SDS011;41972;48.774;9.282;2023-04-01T23:34:32;24.77;;;23.90;;
2157;SDS011;41972;48.774;9.282;2023-04-01T23:37:04;9.70;;;9.23;;
2157;SDS011;41972;48.774;9.282;2023-04-01T23:39:35;12.60;;;12.20;;
2157;SDS011;41972;48.774;9.282;2023-04-01T23:42:23;20.50;;;19.60;;
2157;SDS011;41972;48.774;9.282;2023-04-01T23:44:58;8.07;;;7.67;;
2157;SDS011;41972;48.774;9.282;2023-04-01T23:47:29;19.63;;;18.93;;
2157;SDS011;41972;48.774;9.282;2023-04-01T23:49:56;13.23;;;12.70;;
2157;SDS011;41972;48.774;9.282;2023-04-01T23:52:27;18.03;;;17.33;;
2157;SDS011;41972;48.774;9.282;2023-04-01T23:54:59;16.13;;;15.53;;
2157;SDS011;41972;48.774;9.282;2023-04-01T23:57:30;4.07;;;3.87;;
